SCDASCAR

Guest
Details From SCDA - DIEGO ARACENA INTL
To SCAR - CHACALLUTA
Flight Number -
Tags generated
Created
Modified
Stats Distance 132 nm / 244 km
Max Altitude 12,200 ft / 3,719 m
Waypoints 4
Social Downloads 2
Likes 0
Share

Download

Looking for another format? Having issues loading an existing format? Contact us
Advertisement - Login to hide

Notes

Basic altitude profile: - Ascent Rate: 2000ft/min - Ascent Speed: 250kts - Cruise Altitude: 20000ft - Cruise Speed: 320kts - Descent Rate: 1500ft/min - Descent Speed: 250kts Options: - Use NATs: yes - Use PACOTS: yes - Use low airways: yes - Use high airways: yes

Route

SCDA CAMAR VW200 ARI SCAR

ID Type Via Altitude (ft/m) Position (lat/lon) Dist (leg/tot) Name
O SCDA APT - 0 / 0 -20.53523 / -70.18128 - / 0 nm DIEGO ARACENA INTL
CAMAR FIX - 12,200 / 3,719 -19.37444 / -70.25972 69 / 69 nm
ARI VOR VW200 (AWY-LO) 8,000 / 2,438 -18.36944 / -70.34639 60 / 130 nm ARICA VOR-DME
O SCAR APT - 0 / 0 -18.34853 / -70.33874 1 / 131 nm CHACALLUTA

Altitude Profile

Advertisement - Login to hide

SCDA

Details ICAO SCDA (IQQ)
Name Diego Aracena
Region Chile
Timezone America/Santiago (UTC-3.0)
Stats Elevation 154 ft / 47 m (AMSL)
Location -20.535200° -70.181300°
Runways 1
Magnetic Variation 5.512° W

METAR

SCDA 080800Z 16006KT 9999 SCT036 18/11 Q1017

Decode

TAF

TAF SCDA 072208Z 0800/0824 21008KT 9999 OVC035 TN17/0806Z TX21/0818Z BECMG 0804/0806 15004KT CAVOK BECMG 0814/0816 24015KT CAVOK

Decode

Departure Runways

ID Width Length Bearing (true/mag) Surface Threshold Overrun Markings Lighting
01 148 ft / 45 m 11,001 ft / 3,353 m 2.90° / 8.41° ASPHALT 0 ft / 0 m 617 ft / 188 m PREC-APP CENTERLINE EDGE THRESHOLD ALSF-II TDZ REIL-OMNI
19 148 ft / 45 m 11,001 ft / 3,353 m 182.90° / 188.41° ASPHALT 0 ft / 0 m 200 ft / 61 m APP CENTERLINE EDGE THRESHOLD ALSF-II TDZ REIL-OMNI

SCAR

Details ICAO SCAR (ARI)
Name CHACALLUTA
Region Chile
Timezone America/Santiago (UTC-3.0)
Stats Elevation 166 ft / 51 m (AMSL)
Location -18.348500° -70.338700°
Runways 1
Magnetic Variation 6.139° W

METAR

SCAR 080800Z 33004KT 9999 OVC035 19/13 Q1016

Decode

TAF

TAF SCAR 080409Z 0806/0906 32004KT 9999 OVC040 TN18/0810Z TX21/0818Z BECMG 0812/0814 13004KT CAVOK BECMG 0815/0817 22010KT BECMG 0900/0902 14004KT

Decode

Destination Runways

ID Width Length Bearing (true/mag) Surface Threshold Overrun Markings Lighting
02 148 ft / 45 m 7,149 ft / 2,179 m 19.19° / 25.33° ASPHALT 0 ft / 0 m 197 ft / 60 m APP EDGE THRESHOLD MALS
20 148 ft / 45 m 7,149 ft / 2,179 m 199.19° / 205.33° ASPHALT 0 ft / 0 m 197 ft / 60 m APP EDGE THRESHOLD REIL-OMNI

Popular Alternatives